sensor_id;sensor_type;location;lat;lon;timestamp;P1;durP1;ratioP1;P2;durP2;ratioP2
13985;SDS011;7067;51.832;8.296;2023-03-01T00:00:38;8.67;;;7.67;;
13985;SDS011;7067;51.832;8.296;2023-03-01T00:03:03;9.40;;;8.40;;
13985;SDS011;7067;51.832;8.296;2023-03-01T00:05:28;9.80;;;8.83;;
13985;SDS011;7067;51.832;8.296;2023-03-01T00:07:53;22.70;;;9.53;;
13985;SDS011;7067;51.832;8.296;2023-03-01T00:10:19;11.13;;;8.80;;
13985;SDS011;7067;51.832;8.296;2023-03-01T00:12:44;13.50;;;9.53;;
13985;SDS011;7067;51.832;8.296;2023-03-01T00:15:09;14.23;;;9.30;;
13985;SDS011;7067;51.832;8.296;2023-03-01T00:17:34;13.17;;;9.87;;
13985;SDS011;7067;51.832;8.296;2023-03-01T00:19:59;12.17;;;9.03;;
13985;SDS011;7067;51.832;8.296;2023-03-01T00:22:26;11.03;;;8.60;;
13985;SDS011;7067;51.832;8.296;2023-03-01T00:24:53;9.57;;;8.67;;
13985;SDS011;7067;51.832;8.296;2023-03-01T00:27:18;10.23;;;9.17;;
13985;SDS011;7067;51.832;8.296;2023-03-01T00:29:43;11.43;;;8.63;;
13985;SDS011;7067;51.832;8.296;2023-03-01T00:32:08;9.47;;;8.50;;
13985;SDS011;7067;51.832;8.296;2023-03-01T00:34:33;8.83;;;7.73;;
13985;SDS011;7067;51.832;8.296;2023-03-01T00:36:59;11.63;;;8.70;;
13985;SDS011;7067;51.832;8.296;2023-03-01T00:39:29;8.93;;;8.03;;
13985;SDS011;7067;51.832;8.296;2023-03-01T00:41:55;9.27;;;8.37;;
13985;SDS011;7067;51.832;8.296;2023-03-01T00:44:21;14.33;;;9.57;;
13985;SDS011;7067;51.832;8.296;2023-03-01T00:46:46;11.97;;;8.67;;
13985;SDS011;7067;51.832;8.296;2023-03-01T00:49:11;9.70;;;8.57;;
13985;SDS011;7067;51.832;8.296;2023-03-01T00:51:37;10.97;;;7.40;;
13985;SDS011;7067;51.832;8.296;2023-03-01T00:54:04;11.07;;;8.43;;
13985;SDS011;7067;51.832;8.296;2023-03-01T00:56:29;10.23;;;9.23;;
13985;SDS011;7067;51.832;8.296;2023-03-01T00:58:55;10.87;;;8.77;;
13985;SDS011;7067;51.832;8.296;2023-03-01T01:01:21;9.77;;;8.20;;
13985;SDS011;7067;51.832;8.296;2023-03-01T01:03:47;9.03;;;7.90;;
13985;SDS011;7067;51.832;8.296;2023-03-01T01:06:17;8.83;;;7.93;;
13985;SDS011;7067;51.832;8.296;2023-03-01T01:08:43;8.75;;;7.88;;
13985;SDS011;7067;51.832;8.296;2023-03-01T01:11:09;10.40;;;8.23;;
13985;SDS011;7067;51.832;8.296;2023-03-01T01:13:34;9.47;;;7.90;;
13985;SDS011;7067;51.832;8.296;2023-03-01T01:16:02;9.97;;;8.37;;
13985;SDS011;7067;51.832;8.296;2023-03-01T01:18:27;13.13;;;8.80;;
13985;SDS011;7067;51.832;8.296;2023-03-01T01:20:52;10.47;;;7.53;;
13985;SDS011;7067;51.832;8.296;2023-03-01T01:23:18;10.57;;;9.00;;
13985;SDS011;7067;51.832;8.296;2023-03-01T01:25:43;9.90;;;8.43;;
13985;SDS011;7067;51.832;8.296;2023-03-01T01:28:08;9.23;;;8.33;;
13985;SDS011;7067;51.832;8.296;2023-03-01T01:30:33;9.83;;;8.33;;
13985;SDS011;7067;51.832;8.296;2023-03-01T01:32:58;9.47;;;8.07;;
13985;SDS011;7067;51.832;8.296;2023-03-01T01:35:24;10.37;;;8.03;;
13985;SDS011;7067;51.832;8.296;2023-03-01T01:37:49;9.63;;;8.63;;
13985;SDS011;7067;51.832;8.296;2023-03-01T01:40:14;9.77;;;8.30;;
13985;SDS011;7067;51.832;8.296;2023-03-01T01:42:40;9.57;;;7.97;;
13985;SDS011;7067;51.832;8.296;2023-03-01T01:47:50;10.27;;;9.20;;
13985;SDS011;7067;51.832;8.296;2023-03-01T01:50:16;10.97;;;9.57;;
13985;SDS011;7067;51.832;8.296;2023-03-01T01:52:43;10.27;;;9.27;;
13985;SDS011;7067;51.832;8.296;2023-03-01T01:55:08;13.53;;;9.03;;
13985;SDS011;7067;51.832;8.296;2023-03-01T02:00:03;9.80;;;8.67;;
13985;SDS011;7067;51.832;8.296;2023-03-01T02:02:29;11.27;;;9.13;;
13985;SDS011;7067;51.832;8.296;2023-03-01T02:04:58;13.70;;;9.20;;
13985;SDS011;7067;51.832;8.296;2023-03-01T02:07:28;9.87;;;8.87;;
13985;SDS011;7067;51.832;8.296;2023-03-01T02:09:53;10.53;;;8.60;;
13985;SDS011;7067;51.832;8.296;2023-03-01T02:12:20;11.13;;;10.00;;
13985;SDS011;7067;51.832;8.296;2023-03-01T02:14:46;14.90;;;9.47;;
13985;SDS011;7067;51.832;8.296;2023-03-01T02:17:11;9.83;;;8.83;;
13985;SDS011;7067;51.832;8.296;2023-03-01T02:19:41;9.80;;;8.73;;
13985;SDS011;7067;51.832;8.296;2023-03-01T02:22:20;10.90;;;9.70;;
13985;SDS011;7067;51.832;8.296;2023-03-01T02:27:22;11.23;;;8.37;;
13985;SDS011;7067;51.832;8.296;2023-03-01T02:29:49;12.23;;;9.47;;
13985;SDS011;7067;51.832;8.296;2023-03-01T02:32:15;13.10;;;9.43;;
13985;SDS011;7067;51.832;8.296;2023-03-01T02:34:41;9.90;;;8.90;;
13985;SDS011;7067;51.832;8.296;2023-03-01T02:37:11;11.40;;;9.57;;
13985;SDS011;7067;51.832;8.296;2023-03-01T02:39:42;15.50;;;10.13;;
13985;SDS011;7067;51.832;8.296;2023-03-01T02:42:10;11.90;;;10.30;;
13985;SDS011;7067;51.832;8.296;2023-03-01T02:44:35;11.37;;;10.17;;
13985;SDS011;7067;51.832;8.296;2023-03-01T02:47:01;10.20;;;8.93;;
13985;SDS011;7067;51.832;8.296;2023-03-01T02:49:29;11.67;;;9.30;;
13985;SDS011;7067;51.832;8.296;2023-03-01T02:54:47;11.97;;;9.17;;
13985;SDS011;7067;51.832;8.296;2023-03-01T02:57:13;12.70;;;9.50;;
13985;SDS011;7067;51.832;8.296;2023-03-01T02:59:39;12.00;;;9.50;;
13985;SDS011;7067;51.832;8.296;2023-03-01T03:02:05;12.07;;;10.33;;
13985;SDS011;7067;51.832;8.296;2023-03-01T03:04:30;14.23;;;10.10;;
13985;SDS011;7067;51.832;8.296;2023-03-01T03:06:56;11.07;;;8.80;;
13985;SDS011;7067;51.832;8.296;2023-03-01T03:09:21;13.40;;;10.63;;
13985;SDS011;7067;51.832;8.296;2023-03-01T03:11:46;13.00;;;9.67;;
13985;SDS011;7067;51.832;8.296;2023-03-01T03:14:12;10.43;;;9.37;;
13985;SDS011;7067;51.832;8.296;2023-03-01T03:16:45;11.93;;;9.60;;
13985;SDS011;7067;51.832;8.296;2023-03-01T03:19:10;12.93;;;10.43;;
13985;SDS011;7067;51.832;8.296;2023-03-01T03:21:36;11.23;;;9.77;;
13985;SDS011;7067;51.832;8.296;2023-03-01T03:24:01;12.73;;;9.83;;
13985;SDS011;7067;51.832;8.296;2023-03-01T03:26:27;11.03;;;9.80;;
13985;SDS011;7067;51.832;8.296;2023-03-01T03:28:52;15.23;;;9.67;;
13985;SDS011;7067;51.832;8.296;2023-03-01T03:31:17;15.07;;;9.97;;
13985;SDS011;7067;51.832;8.296;2023-03-01T03:33:43;10.00;;;8.90;;
13985;SDS011;7067;51.832;8.296;2023-03-01T03:36:08;11.10;;;9.57;;
13985;SDS011;7067;51.832;8.296;2023-03-01T03:38:38;13.23;;;9.65;;
13985;SDS011;7067;51.832;8.296;2023-03-01T03:41:04;11.23;;;9.40;;
13985;SDS011;7067;51.832;8.296;2023-03-01T03:43:31;10.30;;;9.20;;
13985;SDS011;7067;51.832;8.296;2023-03-01T03:45:56;10.50;;;9.37;;
13985;SDS011;7067;51.832;8.296;2023-03-01T03:48:22;13.27;;;9.70;;
13985;SDS011;7067;51.832;8.296;2023-03-01T03:50:48;10.33;;;9.33;;
13985;SDS011;7067;51.832;8.296;2023-03-01T03:53:14;12.33;;;9.60;;
13985;SDS011;7067;51.832;8.296;2023-03-01T03:55:39;12.23;;;10.40;;
13985;SDS011;7067;51.832;8.296;2023-03-01T03:58:05;13.03;;;10.43;;
13985;SDS011;7067;51.832;8.296;2023-03-01T04:00:34;12.53;;;9.67;;
13985;SDS011;7067;51.832;8.296;2023-03-01T04:03:00;11.93;;;9.57;;
13985;SDS011;7067;51.832;8.296;2023-03-01T04:05:26;11.80;;;10.20;;
13985;SDS011;7067;51.832;8.296;2023-03-01T04:07:51;13.90;;;10.40;;
13985;SDS011;7067;51.832;8.296;2023-03-01T04:10:26;15.30;;;11.00;;
13985;SDS011;7067;51.832;8.296;2023-03-01T04:12:51;16.93;;;10.67;;
13985;SDS011;7067;51.832;8.296;2023-03-01T04:15:17;11.87;;;10.07;;
13985;SDS011;7067;51.832;8.296;2023-03-01T04:17:43;13.30;;;10.27;;
13985;SDS011;7067;51.832;8.296;2023-03-01T04:20:13;15.03;;;11.57;;
13985;SDS011;7067;51.832;8.296;2023-03-01T04:22:39;14.60;;;10.50;;
13985;SDS011;7067;51.832;8.296;2023-03-01T04:25:05;11.70;;;10.43;;
13985;SDS011;7067;51.832;8.296;2023-03-01T04:27:32;13.57;;;11.17;;
13985;SDS011;7067;51.832;8.296;2023-03-01T04:29:57;14.00;;;10.60;;
13985;SDS011;7067;51.832;8.296;2023-03-01T04:32:23;11.70;;;10.07;;
13985;SDS011;7067;51.832;8.296;2023-03-01T04:34:48;11.30;;;10.20;;
13985;SDS011;7067;51.832;8.296;2023-03-01T04:37:13;12.90;;;11.17;;
13985;SDS011;7067;51.832;8.296;2023-03-01T04:39:40;16.10;;;13.67;;
13985;SDS011;7067;51.832;8.296;2023-03-01T04:42:11;17.83;;;13.43;;
13985;SDS011;7067;51.832;8.296;2023-03-01T04:44:36;13.00;;;10.87;;
13985;SDS011;7067;51.832;8.296;2023-03-01T04:47:01;13.30;;;11.30;;
13985;SDS011;7067;51.832;8.296;2023-03-01T04:49:26;16.93;;;15.10;;
13985;SDS011;7067;51.832;8.296;2023-03-01T04:51:52;17.63;;;15.83;;
13985;SDS011;7067;51.832;8.296;2023-03-01T04:54:17;12.27;;;11.03;;
13985;SDS011;7067;51.832;8.296;2023-03-01T04:56:42;12.83;;;10.47;;
13985;SDS011;7067;51.832;8.296;2023-03-01T04:59:07;16.70;;;12.53;;
13985;SDS011;7067;51.832;8.296;2023-03-01T05:01:35;16.37;;;11.57;;
13985;SDS011;7067;51.832;8.296;2023-03-01T05:04:00;24.57;;;22.57;;
13985;SDS011;7067;51.832;8.296;2023-03-01T05:06:28;13.80;;;10.50;;
13985;SDS011;7067;51.832;8.296;2023-03-01T05:08:53;13.77;;;10.83;;
13985;SDS011;7067;51.832;8.296;2023-03-01T05:11:18;12.97;;;11.53;;
13985;SDS011;7067;51.832;8.296;2023-03-01T05:13:44;17.23;;;15.50;;
13985;SDS011;7067;51.832;8.296;2023-03-01T05:16:09;59.37;;;54.97;;
13985;SDS011;7067;51.832;8.296;2023-03-01T05:18:36;19.50;;;17.43;;
13985;SDS011;7067;51.832;8.296;2023-03-01T05:21:06;23.17;;;21.33;;
13985;SDS011;7067;51.832;8.296;2023-03-01T05:26:00;211.10;;;192.93;;
13985;SDS011;7067;51.832;8.296;2023-03-01T05:28:26;92.73;;;86.27;;
13985;SDS011;7067;51.832;8.296;2023-03-01T05:30:51;27.57;;;25.03;;
13985;SDS011;7067;51.832;8.296;2023-03-01T05:33:17;21.37;;;19.53;;
13985;SDS011;7067;51.832;8.296;2023-03-01T05:35:43;73.93;;;69.07;;
13985;SDS011;7067;51.832;8.296;2023-03-01T05:38:09;20.63;;;18.83;;
13985;SDS011;7067;51.832;8.296;2023-03-01T05:40:38;63.42;;;19.25;;
13985;SDS011;7067;51.832;8.296;2023-03-01T05:43:03;78.30;;;72.63;;
13985;SDS011;7067;51.832;8.296;2023-03-01T05:45:30;226.97;;;207.10;;
13985;SDS011;7067;51.832;8.296;2023-03-01T05:47:57;36.07;;;33.40;;
13985;SDS011;7067;51.832;8.296;2023-03-01T05:50:26;30.53;;;27.80;;
13985;SDS011;7067;51.832;8.296;2023-03-01T05:52:56;47.10;;;43.57;;
13985;SDS011;7067;51.832;8.296;2023-03-01T05:55:22;32.45;;;29.38;;
13985;SDS011;7067;51.832;8.296;2023-03-01T05:57:48;35.27;;;32.30;;
13985;SDS011;7067;51.832;8.296;2023-03-01T06:00:14;56.83;;;52.50;;
13985;SDS011;7067;51.832;8.296;2023-03-01T06:02:40;28.03;;;25.80;;
13985;SDS011;7067;51.832;8.296;2023-03-01T06:05:06;47.13;;;43.50;;
13985;SDS011;7067;51.832;8.296;2023-03-01T06:07:32;20.97;;;18.97;;
13985;SDS011;7067;51.832;8.296;2023-03-01T06:09:57;41.43;;;38.23;;
13985;SDS011;7067;51.832;8.296;2023-03-01T06:12:22;37.53;;;34.57;;
13985;SDS011;7067;51.832;8.296;2023-03-01T06:14:48;67.80;;;63.23;;
13985;SDS011;7067;51.832;8.296;2023-03-01T06:17:13;35.27;;;32.23;;
13985;SDS011;7067;51.832;8.296;2023-03-01T06:19:38;26.47;;;24.27;;
13985;SDS011;7067;51.832;8.296;2023-03-01T06:22:04;16.47;;;14.83;;
13985;SDS011;7067;51.832;8.296;2023-03-01T06:24:29;101.00;;;94.33;;
13985;SDS011;7067;51.832;8.296;2023-03-01T06:26:54;35.80;;;32.93;;
13985;SDS011;7067;51.832;8.296;2023-03-01T06:29:20;34.73;;;31.40;;
13985;SDS011;7067;51.832;8.296;2023-03-01T06:31:47;27.83;;;25.40;;
13985;SDS011;7067;51.832;8.296;2023-03-01T06:34:12;24.90;;;21.00;;
13985;SDS011;7067;51.832;8.296;2023-03-01T06:36:38;100.07;;;93.10;;
13985;SDS011;7067;51.832;8.296;2023-03-01T06:39:04;27.73;;;24.07;;
13985;SDS011;7067;51.832;8.296;2023-03-01T06:41:30;21.23;;;19.10;;
13985;SDS011;7067;51.832;8.296;2023-03-01T06:43:55;57.77;;;53.60;;
13985;SDS011;7067;51.832;8.296;2023-03-01T06:46:20;112.93;;;105.03;;
13985;SDS011;7067;51.832;8.296;2023-03-01T06:48:46;30.40;;;27.53;;
13985;SDS011;7067;51.832;8.296;2023-03-01T06:51:11;19.07;;;16.93;;
13985;SDS011;7067;51.832;8.296;2023-03-01T06:53:37;17.53;;;13.77;;
13985;SDS011;7067;51.832;8.296;2023-03-01T06:56:02;14.83;;;12.53;;
13985;SDS011;7067;51.832;8.296;2023-03-01T06:58:27;14.87;;;12.70;;
13985;SDS011;7067;51.832;8.296;2023-03-01T07:00:53;15.70;;;13.93;;
13985;SDS011;7067;51.832;8.296;2023-03-01T07:03:18;21.70;;;15.00;;
13985;SDS011;7067;51.832;8.296;2023-03-01T07:05:43;19.57;;;15.20;;
13985;SDS011;7067;51.832;8.296;2023-03-01T07:08:09;22.27;;;18.83;;
13985;SDS011;7067;51.832;8.296;2023-03-01T07:10:35;20.67;;;14.80;;
13985;SDS011;7067;51.832;8.296;2023-03-01T07:13:00;56.00;;;51.30;;
13985;SDS011;7067;51.832;8.296;2023-03-01T07:15:26;19.87;;;15.27;;
13985;SDS011;7067;51.832;8.296;2023-03-01T07:17:51;20.57;;;15.00;;
13985;SDS011;7067;51.832;8.296;2023-03-01T07:20:20;20.13;;;13.93;;
13985;SDS011;7067;51.832;8.296;2023-03-01T07:22:50;22.43;;;14.97;;
13985;SDS011;7067;51.832;8.296;2023-03-01T07:25:16;21.20;;;14.33;;
13985;SDS011;7067;51.832;8.296;2023-03-01T07:27:41;33.97;;;15.20;;
13985;SDS011;7067;51.832;8.296;2023-03-01T07:30:06;24.17;;;14.57;;
13985;SDS011;7067;51.832;8.296;2023-03-01T07:32:32;22.97;;;13.60;;
13985;SDS011;7067;51.832;8.296;2023-03-01T07:34:57;21.70;;;13.97;;
13985;SDS011;7067;51.832;8.296;2023-03-01T07:37:22;25.97;;;13.83;;
13985;SDS011;7067;51.832;8.296;2023-03-01T07:39:48;23.50;;;13.83;;
13985;SDS011;7067;51.832;8.296;2023-03-01T07:42:13;17.93;;;13.70;;
13985;SDS011;7067;51.832;8.296;2023-03-01T07:44:38;20.63;;;13.00;;
13985;SDS011;7067;51.832;8.296;2023-03-01T07:47:03;18.47;;;12.60;;
13985;SDS011;7067;51.832;8.296;2023-03-01T07:49:29;14.97;;;12.10;;
13985;SDS011;7067;51.832;8.296;2023-03-01T07:51:54;14.20;;;11.77;;
13985;SDS011;7067;51.832;8.296;2023-03-01T07:54:20;15.53;;;11.53;;
13985;SDS011;7067;51.832;8.296;2023-03-01T07:56:45;15.27;;;11.90;;
13985;SDS011;7067;51.832;8.296;2023-03-01T07:59:10;14.27;;;11.90;;
13985;SDS011;7067;51.832;8.296;2023-03-01T08:01:35;13.97;;;11.50;;
13985;SDS011;7067;51.832;8.296;2023-03-01T08:04:01;14.00;;;11.90;;
13985;SDS011;7067;51.832;8.296;2023-03-01T08:06:26;20.87;;;11.70;;
13985;SDS011;7067;51.832;8.296;2023-03-01T08:08:52;15.53;;;12.20;;
13985;SDS011;7067;51.832;8.296;2023-03-01T08:11:20;13.37;;;11.80;;
13985;SDS011;7067;51.832;8.296;2023-03-01T08:13:46;16.87;;;12.50;;
13985;SDS011;7067;51.832;8.296;2023-03-01T08:16:13;13.23;;;11.90;;
13985;SDS011;7067;51.832;8.296;2023-03-01T08:18:38;16.10;;;12.17;;
13985;SDS011;7067;51.832;8.296;2023-03-01T08:21:07;15.67;;;12.00;;
13985;SDS011;7067;51.832;8.296;2023-03-01T08:23:33;13.35;;;11.93;;
13985;SDS011;7067;51.832;8.296;2023-03-01T08:26:05;14.30;;;11.93;;
13985;SDS011;7067;51.832;8.296;2023-03-01T08:28:31;17.77;;;12.50;;
13985;SDS011;7067;51.832;8.296;2023-03-01T08:30:57;13.17;;;11.87;;
13985;SDS011;7067;51.832;8.296;2023-03-01T08:33:22;16.27;;;11.57;;
13985;SDS011;7067;51.832;8.296;2023-03-01T08:35:47;16.70;;;11.63;;
13985;SDS011;7067;51.832;8.296;2023-03-01T08:38:12;12.73;;;11.30;;
13985;SDS011;7067;51.832;8.296;2023-03-01T08:40:38;12.17;;;11.07;;
13985;SDS011;7067;51.832;8.296;2023-03-01T08:43:03;11.50;;;10.33;;
13985;SDS011;7067;51.832;8.296;2023-03-01T08:45:29;33.47;;;11.20;;
13985;SDS011;7067;51.832;8.296;2023-03-01T08:47:54;17.97;;;11.30;;
13985;SDS011;7067;51.832;8.296;2023-03-01T08:50:19;10.53;;;9.60;;
13985;SDS011;7067;51.832;8.296;2023-03-01T08:52:45;11.73;;;9.50;;
13985;SDS011;7067;51.832;8.296;2023-03-01T08:55:10;10.57;;;8.60;;
13985;SDS011;7067;51.832;8.296;2023-03-01T08:57:35;10.93;;;9.00;;
13985;SDS011;7067;51.832;8.296;2023-03-01T09:00:01;10.40;;;8.77;;
13985;SDS011;7067;51.832;8.296;2023-03-01T09:02:26;18.13;;;9.77;;
13985;SDS011;7067;51.832;8.296;2023-03-01T09:04:51;27.43;;;9.60;;
13985;SDS011;7067;51.832;8.296;2023-03-01T09:07:16;10.77;;;9.67;;
13985;SDS011;7067;51.832;8.296;2023-03-01T09:09:42;28.80;;;9.60;;
13985;SDS011;7067;51.832;8.296;2023-03-01T09:12:07;8.67;;;7.83;;
13985;SDS011;7067;51.832;8.296;2023-03-01T09:14:32;10.13;;;9.13;;
13985;SDS011;7067;51.832;8.296;2023-03-01T09:16:58;23.50;;;10.33;;
13985;SDS011;7067;51.832;8.296;2023-03-01T09:19:23;17.67;;;8.97;;
13985;SDS011;7067;51.832;8.296;2023-03-01T09:21:48;12.20;;;9.70;;
13985;SDS011;7067;51.832;8.296;2023-03-01T09:24:21;17.67;;;9.10;;
13985;SDS011;7067;51.832;8.296;2023-03-01T09:26:47;21.33;;;9.87;;
13985;SDS011;7067;51.832;8.296;2023-03-01T09:29:13;10.10;;;9.03;;
13985;SDS011;7067;51.832;8.296;2023-03-01T09:31:39;10.97;;;8.43;;
13985;SDS011;7067;51.832;8.296;2023-03-01T09:34:04;30.50;;;11.10;;
13985;SDS011;7067;51.832;8.296;2023-03-01T09:36:30;13.70;;;10.77;;
13985;SDS011;7067;51.832;8.296;2023-03-01T09:38:56;12.97;;;9.87;;
13985;SDS011;7067;51.832;8.296;2023-03-01T09:43:52;13.23;;;9.37;;
13985;SDS011;7067;51.832;8.296;2023-03-01T09:46:19;13.47;;;9.97;;
13985;SDS011;7067;51.832;8.296;2023-03-01T09:48:48;12.60;;;9.00;;
13985;SDS011;7067;51.832;8.296;2023-03-01T09:51:18;28.90;;;10.70;;
13985;SDS011;7067;51.832;8.296;2023-03-01T09:53:44;9.82;;;8.70;;
13985;SDS011;7067;51.832;8.296;2023-03-01T10:06:46;22.17;;;10.20;;
13985;SDS011;7067;51.832;8.296;2023-03-01T10:09:16;30.10;;;10.83;;
13985;SDS011;7067;51.832;8.296;2023-03-01T10:11:47;13.57;;;8.80;;
13985;SDS011;7067;51.832;8.296;2023-03-01T10:17:18;14.03;;;9.77;;
13985;SDS011;7067;51.832;8.296;2023-03-01T10:19:46;21.90;;;10.20;;
13985;SDS011;7067;51.832;8.296;2023-03-01T10:22:16;11.87;;;9.33;;
13985;SDS011;7067;51.832;8.296;2023-03-01T10:24:43;11.70;;;8.93;;
13985;SDS011;7067;51.832;8.296;2023-03-01T10:27:58;11.73;;;9.27;;
13985;SDS011;7067;51.832;8.296;2023-03-01T10:30:01;40.87;;;9.63;;
13985;SDS011;7067;51.832;8.296;2023-03-01T10:32:28;12.90;;;9.80;;
13985;SDS011;7067;51.832;8.296;2023-03-01T10:34:53;10.47;;;7.97;;
13985;SDS011;7067;51.832;8.296;2023-03-01T10:37:19;10.07;;;8.80;;
13985;SDS011;7067;51.832;8.296;2023-03-01T10:42:28;27.30;;;10.30;;
13985;SDS011;7067;51.832;8.296;2023-03-01T10:44:53;14.10;;;9.18;;
13985;SDS011;7067;51.832;8.296;2023-03-01T10:47:26;12.47;;;9.77;;
13985;SDS011;7067;51.832;8.296;2023-03-01T10:52:20;14.43;;;8.83;;
13985;SDS011;7067;51.832;8.296;2023-03-01T10:54:56;11.90;;;8.30;;
13985;SDS011;7067;51.832;8.296;2023-03-01T10:57:29;9.47;;;8.33;;
13985;SDS011;7067;51.832;8.296;2023-03-01T11:00:10;10.03;;;8.20;;
13985;SDS011;7067;51.832;8.296;2023-03-01T11:02:38;13.07;;;8.33;;
13985;SDS011;7067;51.832;8.296;2023-03-01T11:05:16;24.83;;;8.97;;
13985;SDS011;7067;51.832;8.296;2023-03-01T11:07:59;17.07;;;9.33;;
13985;SDS011;7067;51.832;8.296;2023-03-01T11:12:51;36.90;;;10.30;;
13985;SDS011;7067;51.832;8.296;2023-03-01T11:15:26;40.00;;;10.67;;
13985;SDS011;7067;51.832;8.296;2023-03-01T11:17:53;47.07;;;11.33;;
13985;SDS011;7067;51.832;8.296;2023-03-01T11:22:55;46.20;;;12.03;;
13985;SDS011;7067;51.832;8.296;2023-03-01T11:25:32;55.17;;;13.83;;
13985;SDS011;7067;51.832;8.296;2023-03-01T11:27:59;51.30;;;10.97;;
13985;SDS011;7067;51.832;8.296;2023-03-01T11:30:27;73.43;;;15.00;;
13985;SDS011;7067;51.832;8.296;2023-03-01T11:35:22;45.90;;;10.50;;
13985;SDS011;7067;51.832;8.296;2023-03-01T11:38:32;46.20;;;11.77;;
13985;SDS011;7067;51.832;8.296;2023-03-01T11:40:39;62.67;;;12.77;;
13985;SDS011;7067;51.832;8.296;2023-03-01T12:03:13;73.33;;;16.20;;
13985;SDS011;7067;51.832;8.296;2023-03-01T12:26:08;54.17;;;18.27;;
13985;SDS011;7067;51.832;8.296;2023-03-01T12:38:41;112.20;;;23.43;;
13985;SDS011;7067;51.832;8.296;2023-03-01T12:50:10;81.70;;;16.73;;
13985;SDS011;7067;51.832;8.296;2023-03-01T12:52:02;109.13;;;22.63;;
13985;SDS011;7067;51.832;8.296;2023-03-01T12:54:33;56.97;;;19.00;;
13985;SDS011;7067;51.832;8.296;2023-03-01T12:57:01;71.15;;;22.48;;
13985;SDS011;7067;51.832;8.296;2023-03-01T13:03:19;74.67;;;20.23;;
13985;SDS011;7067;51.832;8.296;2023-03-01T13:17:47;144.53;;;22.90;;
13985;SDS011;7067;51.832;8.296;2023-03-01T13:20:17;92.80;;;21.07;;
13985;SDS011;7067;51.832;8.296;2023-03-01T13:22:42;72.77;;;24.83;;
13985;SDS011;7067;51.832;8.296;2023-03-01T13:25:14;124.30;;;23.37;;
13985;SDS011;7067;51.832;8.296;2023-03-01T13:27:40;71.45;;;22.30;;
13985;SDS011;7067;51.832;8.296;2023-03-01T13:30:12;102.23;;;21.03;;
13985;SDS011;7067;51.832;8.296;2023-03-01T13:32:50;62.17;;;19.50;;
13985;SDS011;7067;51.832;8.296;2023-03-01T13:37:44;75.90;;;22.17;;
13985;SDS011;7067;51.832;8.296;2023-03-01T13:42:42;82.47;;;20.60;;
13985;SDS011;7067;51.832;8.296;2023-03-01T13:45:21;77.83;;;15.47;;
13985;SDS011;7067;51.832;8.296;2023-03-01T13:47:49;85.15;;;23.30;;
13985;SDS011;7067;51.832;8.296;2023-03-01T13:50:16;93.87;;;19.60;;
13985;SDS011;7067;51.832;8.296;2023-03-01T13:55:17;121.87;;;27.93;;
13985;SDS011;7067;51.832;8.296;2023-03-01T13:57:44;95.97;;;22.67;;
13985;SDS011;7067;51.832;8.296;2023-03-01T14:00:26;76.33;;;25.07;;
13985;SDS011;7067;51.832;8.296;2023-03-01T14:03:26;79.53;;;21.57;;
13985;SDS011;7067;51.832;8.296;2023-03-01T14:06:04;93.35;;;20.30;;
13985;SDS011;7067;51.832;8.296;2023-03-01T14:08:33;87.17;;;17.67;;
13985;SDS011;7067;51.832;8.296;2023-03-01T14:13:06;86.60;;;19.10;;
13985;SDS011;7067;51.832;8.296;2023-03-01T14:15:50;59.73;;;15.03;;
13985;SDS011;7067;51.832;8.296;2023-03-01T14:18:40;88.03;;;19.67;;
13985;SDS011;7067;51.832;8.296;2023-03-01T14:21:13;135.90;;;22.47;;
13985;SDS011;7067;51.832;8.296;2023-03-01T14:23:39;123.97;;;22.57;;
13985;SDS011;7067;51.832;8.296;2023-03-01T14:26:07;127.97;;;26.23;;
13985;SDS011;7067;51.832;8.296;2023-03-01T14:28:33;130.57;;;26.03;;
13985;SDS011;7067;51.832;8.296;2023-03-01T14:31:03;109.85;;;24.00;;
13985;SDS011;7067;51.832;8.296;2023-03-01T14:33:32;107.70;;;23.60;;
13985;SDS011;7067;51.832;8.296;2023-03-01T14:36:05;138.10;;;22.47;;
13985;SDS011;7067;51.832;8.296;2023-03-01T14:38:35;135.75;;;28.40;;
13985;SDS011;7067;51.832;8.296;2023-03-01T14:41:09;105.60;;;21.07;;
13985;SDS011;7067;51.832;8.296;2023-03-01T14:43:44;154.43;;;22.77;;
13985;SDS011;7067;51.832;8.296;2023-03-01T14:49:02;112.15;;;24.02;;
13985;SDS011;7067;51.832;8.296;2023-03-01T14:51:30;130.02;;;24.30;;
13985;SDS011;7067;51.832;8.296;2023-03-01T14:53:56;93.63;;;22.17;;
13985;SDS011;7067;51.832;8.296;2023-03-01T14:56:21;107.72;;;23.38;;
13985;SDS011;7067;51.832;8.296;2023-03-01T14:58:50;174.03;;;27.53;;
13985;SDS011;7067;51.832;8.296;2023-03-01T15:01:17;215.95;;;36.78;;
13985;SDS011;7067;51.832;8.296;2023-03-01T15:03:44;140.93;;;24.27;;
13985;SDS011;7067;51.832;8.296;2023-03-01T15:06:14;180.23;;;31.77;;
13985;SDS011;7067;51.832;8.296;2023-03-01T15:08:42;128.25;;;25.48;;
13985;SDS011;7067;51.832;8.296;2023-03-01T15:11:24;94.35;;;25.65;;
13985;SDS011;7067;51.832;8.296;2023-03-01T15:13:54;176.48;;;25.38;;
13985;SDS011;7067;51.832;8.296;2023-03-01T15:16:24;135.83;;;26.43;;
13985;SDS011;7067;51.832;8.296;2023-03-01T15:18:57;127.27;;;26.43;;
13985;SDS011;7067;51.832;8.296;2023-03-01T15:21:34;104.57;;;25.95;;
13985;SDS011;7067;51.832;8.296;2023-03-01T15:24:04;179.48;;;28.05;;
13985;SDS011;7067;51.832;8.296;2023-03-01T15:26:31;131.35;;;24.20;;
13985;SDS011;7067;51.832;8.296;2023-03-01T15:29:00;166.98;;;27.92;;
13985;SDS011;7067;51.832;8.296;2023-03-01T15:31:32;97.65;;;23.35;;
13985;SDS011;7067;51.832;8.296;2023-03-01T15:36:54;149.98;;;26.55;;
13985;SDS011;7067;51.832;8.296;2023-03-01T15:42:23;122.57;;;24.25;;
13985;SDS011;7067;51.832;8.296;2023-03-01T15:45:08;110.83;;;26.43;;
13985;SDS011;7067;51.832;8.296;2023-03-01T15:47:41;141.73;;;23.63;;
13985;SDS011;7067;51.832;8.296;2023-03-01T15:50:16;123.57;;;28.53;;
13985;SDS011;7067;51.832;8.296;2023-03-01T15:52:44;140.95;;;24.25;;
13985;SDS011;7067;51.832;8.296;2023-03-01T15:55:19;112.63;;;26.00;;
13985;SDS011;7067;51.832;8.296;2023-03-01T15:57:59;161.37;;;21.83;;
13985;SDS011;7067;51.832;8.296;2023-03-01T16:00:32;148.57;;;24.60;;
13985;SDS011;7067;51.832;8.296;2023-03-01T16:02:59;61.90;;;17.10;;
13985;SDS011;7067;51.832;8.296;2023-03-01T16:05:26;72.10;;;20.67;;
13985;SDS011;7067;51.832;8.296;2023-03-01T16:08:01;85.83;;;19.23;;
13985;SDS011;7067;51.832;8.296;2023-03-01T16:10:27;104.13;;;22.37;;
13985;SDS011;7067;51.832;8.296;2023-03-01T16:12:53;57.27;;;19.87;;
13985;SDS011;7067;51.832;8.296;2023-03-01T16:15:29;74.60;;;18.67;;
13985;SDS011;7067;51.832;8.296;2023-03-01T16:17:56;107.87;;;22.83;;
13985;SDS011;7067;51.832;8.296;2023-03-01T16:20:23;105.03;;;23.63;;
13985;SDS011;7067;51.832;8.296;2023-03-01T16:22:49;72.53;;;20.33;;
13985;SDS011;7067;51.832;8.296;2023-03-01T16:25:15;124.27;;;25.30;;
13985;SDS011;7067;51.832;8.296;2023-03-01T16:27:43;85.43;;;22.97;;
13985;SDS011;7067;51.832;8.296;2023-03-01T16:30:09;103.43;;;22.97;;
13985;SDS011;7067;51.832;8.296;2023-03-01T16:32:39;81.13;;;19.17;;
13985;SDS011;7067;51.832;8.296;2023-03-01T16:35:06;94.00;;;20.45;;
13985;SDS011;7067;51.832;8.296;2023-03-01T16:37:33;65.53;;;18.93;;
13985;SDS011;7067;51.832;8.296;2023-03-01T16:39:59;101.70;;;20.90;;
13985;SDS011;7067;51.832;8.296;2023-03-01T16:42:25;66.77;;;21.63;;
13985;SDS011;7067;51.832;8.296;2023-03-01T16:44:54;87.70;;;22.10;;
13985;SDS011;7067;51.832;8.296;2023-03-01T16:47:20;83.75;;;25.33;;
13985;SDS011;7067;51.832;8.296;2023-03-01T16:49:46;124.60;;;24.33;;
13985;SDS011;7067;51.832;8.296;2023-03-01T16:52:11;62.20;;;18.17;;
13985;SDS011;7067;51.832;8.296;2023-03-01T16:54:37;74.80;;;19.57;;